createdAt,value
2019-05-19T00:00:03.484Z,31.17
2019-05-19T00:02:34.103Z,31.57
2019-05-19T00:05:04.882Z,32.73
2019-05-19T00:07:54.744Z,33.23
2019-05-19T00:10:44.562Z,31.97
2019-05-19T00:13:34.370Z,31.60
2019-05-19T00:16:06.469Z,34.07
2019-05-19T00:18:56.343Z,32.83
2019-05-19T00:21:46.176Z,33.23
2019-05-19T00:24:35.971Z,32.97
2019-05-19T00:27:06.849Z,33.30
2019-05-19T00:29:37.253Z,32.10
2019-05-19T00:32:27.044Z,34.00
2019-05-19T00:35:16.877Z,34.30
2019-05-19T00:37:47.274Z,32.03
2019-05-19T00:40:37.055Z,32.03
2019-05-19T00:43:27.019Z,33.20
2019-05-19T00:49:38.895Z,32.43
2019-05-19T00:52:17.702Z,32.50
2019-05-19T00:55:09.771Z,32.43
2019-05-19T01:01:20.769Z,30.20
2019-05-19T01:04:10.588Z,29.77
2019-05-19T01:07:00.389Z,31.63
2019-05-19T01:09:50.276Z,31.00
2019-05-19T01:12:40.154Z,31.60
2019-05-19T01:15:29.959Z,31.53
2019-05-19T01:18:19.920Z,29.03
2019-05-19T01:20:50.362Z,30.90
2019-05-19T01:23:40.255Z,30.37
2019-05-19T01:26:30.347Z,32.10
2019-05-19T01:29:02.429Z,32.50
2019-05-19T01:31:52.346Z,31.93
2019-05-19T01:34:42.205Z,32.40
2019-05-19T01:37:32.144Z,33.77
2019-05-19T01:40:22.030Z,32.97
2019-05-19T01:43:11.922Z,33.10
2019-05-19T01:46:01.855Z,33.40
2019-05-19T01:48:51.745Z,31.17
2019-05-19T01:51:41.632Z,30.97
2019-05-19T01:54:31.461Z,30.90
2019-05-19T01:57:21.304Z,29.50
2019-05-19T02:03:14.684Z,31.70
2019-05-19T02:06:04.490Z,29.07
2019-05-19T02:08:54.325Z,31.07
2019-05-19T02:11:44.110Z,30.67
2019-05-19T02:14:33.938Z,29.27
2019-05-19T02:17:23.761Z,30.70
2019-05-19T02:20:13.848Z,32.40
2019-05-19T02:23:03.687Z,31.40
2019-05-19T02:25:53.548Z,30.60
2019-05-19T02:28:43.408Z,30.90
2019-05-19T02:31:33.227Z,33.50
2019-05-19T02:34:23.044Z,31.17
2019-05-19T02:37:12.897Z,32.50
2019-05-19T02:40:02.745Z,31.47
2019-05-19T02:43:04.278Z,31.90
2019-05-19T03:00:55.951Z,34.13
2019-05-19T03:03:45.757Z,35.67
2019-05-19T03:06:35.658Z,37.40
2019-05-19T03:09:44.463Z,36.50
2019-05-19T03:12:34.295Z,35.33
2019-05-19T03:15:05.201Z,33.93
2019-05-19T03:17:55.043Z,32.77
2019-05-19T03:20:44.902Z,33.13
2019-05-19T03:23:34.761Z,32.83
2019-05-19T03:26:05.330Z,33.43
2019-05-19T03:28:55.204Z,33.30
2019-05-19T03:34:33.277Z,34.87
2019-05-19T03:37:23.228Z,32.10
2019-05-19T03:40:31.925Z,34.57
2019-05-19T03:43:22.258Z,32.53
2019-05-19T03:45:52.730Z,32.00
2019-05-19T03:48:42.534Z,32.27
2019-05-19T03:51:32.920Z,33.40
2019-05-19T03:54:22.795Z,33.50
2019-05-19T03:56:53.320Z,33.00
2019-05-19T03:59:43.125Z,31.73
2019-05-19T04:02:32.929Z,31.70
2019-05-19T04:05:22.662Z,31.03
2019-05-19T04:08:12.516Z,32.67
2019-05-19T04:11:02.272Z,31.37
2019-05-19T04:13:52.082Z,31.67
2019-05-19T04:16:41.872Z,32.60
2019-05-19T04:19:12.320Z,33.10
2019-05-19T04:22:02.503Z,32.20
2019-05-19T04:24:52.276Z,32.07
2019-05-19T04:27:42.109Z,33.27
2019-05-19T04:30:31.929Z,32.37
2019-05-19T04:33:02.385Z,34.63
2019-05-19T04:35:52.212Z,33.97
2019-05-19T04:38:41.994Z,34.30
2019-05-19T04:41:31.899Z,32.50
2019-05-19T04:44:21.724Z,33.87
2019-05-19T04:47:11.558Z,32.13
2019-05-19T04:50:01.341Z,32.90
2019-05-19T04:52:52.001Z,33.33
2019-05-19T04:55:41.879Z,31.40
2019-05-19T04:58:31.700Z,32.73
2019-05-19T05:01:21.626Z,32.93
2019-05-19T05:03:52.036Z,33.63
2019-05-19T05:06:41.815Z,32.10
2019-05-19T05:09:31.626Z,31.70
2019-05-19T05:12:21.540Z,32.10
2019-05-19T05:15:11.547Z,32.70
2019-05-19T05:18:01.349Z,31.70
2019-05-19T05:20:51.169Z,31.20
2019-05-19T05:23:40.922Z,31.07
2019-05-19T05:26:30.752Z,32.73
2019-05-19T05:29:34.472Z,35.10
2019-05-19T05:32:03.373Z,32.77
2019-05-19T05:34:53.172Z,34.77
2019-05-19T05:37:23.577Z,32.60
2019-05-19T05:40:13.462Z,32.43
2019-05-19T05:43:03.233Z,32.20
2019-05-19T05:45:52.989Z,31.10
2019-05-19T05:48:42.846Z,32.27
2019-05-19T05:51:32.617Z,31.90
2019-05-19T05:54:22.501Z,31.47
2019-05-19T05:57:12.239Z,31.00
2019-05-19T05:59:42.660Z,33.07
2019-05-19T06:02:32.425Z,30.63
2019-05-19T06:05:22.255Z,32.03
2019-05-19T06:07:52.624Z,29.90
2019-05-19T06:10:42.405Z,29.93
2019-05-19T06:13:32.170Z,29.37
2019-05-19T06:16:21.976Z,30.17
2019-05-19T06:19:11.791Z,31.47
2019-05-19T06:22:01.590Z,29.83
2019-05-19T06:24:33.695Z,28.23
2019-05-19T06:27:23.446Z,29.80
2019-05-19T06:30:13.381Z,29.00
2019-05-19T06:35:59.796Z,30.83
2019-05-19T06:38:49.711Z,31.10
2019-05-19T06:41:26.503Z,32.00
2019-05-19T06:44:16.287Z,29.13
2019-05-19T06:47:06.066Z,29.73
2019-05-19T06:49:55.848Z,29.13
2019-05-19T06:52:45.616Z,27.97
2019-05-19T06:55:35.490Z,29.07
2019-05-19T06:58:07.534Z,30.17
2019-05-19T07:00:59.280Z,28.43
2019-05-19T07:03:48.826Z,28.57
2019-05-19T07:06:38.686Z,28.02
2019-05-19T07:09:28.704Z,29.03
2019-05-19T07:11:59.136Z,28.03
2019-05-19T07:14:48.935Z,27.20
2019-05-19T07:17:38.760Z,28.17
2019-05-19T07:23:28.344Z,25.70
2019-05-19T07:26:09.255Z,25.33
2019-05-19T07:28:59.131Z,25.07
2019-05-19T07:31:48.936Z,25.77
2019-05-19T07:34:38.766Z,23.77
2019-05-19T07:37:28.608Z,24.53
2019-05-19T07:39:59.288Z,26.10
2019-05-19T07:43:00.833Z,26.37
2019-05-19T07:45:34.649Z,27.53
2019-05-19T07:48:05.078Z,26.40
2019-05-19T07:50:54.915Z,27.10
2019-05-19T07:53:45.606Z,25.17
2019-05-19T07:56:35.391Z,27.10
2019-05-19T07:59:08.102Z,26.07
2019-05-19T08:01:50.546Z,24.57
2019-05-19T08:04:20.980Z,24.73
2019-05-19T08:07:10.785Z,25.50
2019-05-19T08:09:41.239Z,25.90
2019-05-19T08:12:11.646Z,24.40
2019-05-19T08:15:01.514Z,25.47
2019-05-19T08:17:51.403Z,22.33
2019-05-19T08:20:41.266Z,21.40
2019-05-19T08:23:31.089Z,22.63
2019-05-19T08:26:20.915Z,22.27
2019-05-19T08:29:10.719Z,21.30
2019-05-19T08:32:00.544Z,19.77
2019-05-19T08:37:35.611Z,18.20
2019-05-19T08:40:07.751Z,18.10
2019-05-19T08:42:57.578Z,20.60
2019-05-19T08:45:47.381Z,19.40
2019-05-19T08:48:37.206Z,19.60
2019-05-19T08:51:27.014Z,19.10
2019-05-19T08:54:18.960Z,19.20
2019-05-19T08:57:08.331Z,19.97
2019-05-19T08:59:38.814Z,19.40
2019-05-19T09:02:28.581Z,17.83
2019-05-19T09:04:59.058Z,18.30
2019-05-19T09:07:29.763Z,18.80
2019-05-19T09:10:20.599Z,19.37
2019-05-19T09:12:52.704Z,20.20
2019-05-19T09:15:42.709Z,18.90
2019-05-19T09:18:32.584Z,19.73
2019-05-19T09:21:22.447Z,17.90
2019-05-19T09:24:12.357Z,18.60
2019-05-19T09:26:42.765Z,20.10
2019-05-19T09:29:32.612Z,18.40
2019-05-19T09:32:22.442Z,18.20
2019-05-19T09:38:16.755Z,18.80
2019-05-19T09:41:06.625Z,16.87
2019-05-19T09:43:56.458Z,17.93
2019-05-19T09:46:46.218Z,18.07
2019-05-19T09:49:36.312Z,18.00
2019-05-19T09:52:26.091Z,17.73
2019-05-19T09:58:39.859Z,19.77
2019-05-19T10:01:29.704Z,19.13
2019-05-19T10:04:19.600Z,19.07
2019-05-19T10:07:09.721Z,19.60
2019-05-19T10:13:15.027Z,20.03
2019-05-19T10:16:04.844Z,20.00
2019-05-19T10:18:54.644Z,20.70
2019-05-19T10:21:44.498Z,20.30
2019-05-19T10:24:15.087Z,17.83
2019-05-19T10:27:05.039Z,19.77
2019-05-19T10:29:54.927Z,19.67
2019-05-19T10:32:44.812Z,19.03
2019-05-19T10:35:34.741Z,20.17
2019-05-19T10:38:05.343Z,19.30
2019-05-19T10:40:55.139Z,20.43
2019-05-19T10:43:44.989Z,18.83
2019-05-19T10:46:34.771Z,19.77
2019-05-19T10:49:05.390Z,19.53
2019-05-19T10:51:55.370Z,17.10
2019-05-19T10:54:45.203Z,18.30
2019-05-19T10:57:35.130Z,18.87
2019-05-19T11:03:09.069Z,17.53
2019-05-19T11:05:41.090Z,17.80
2019-05-19T11:08:30.907Z,18.60
2019-05-19T11:11:21.209Z,16.40
2019-05-19T11:14:11.084Z,17.80
2019-05-19T11:17:00.880Z,17.90
2019-05-19T11:19:50.690Z,17.63
2019-05-19T11:22:40.530Z,18.40
2019-05-19T11:25:33.813Z,16.60
2019-05-19T11:28:17.637Z,15.80
2019-05-19T11:31:07.466Z,15.63
2019-05-19T11:33:57.355Z,15.73
2019-05-19T11:36:47.211Z,16.10
2019-05-19T11:39:37.077Z,17.07
2019-05-19T11:42:26.907Z,15.70
2019-05-19T11:45:16.746Z,17.17
2019-05-19T11:47:47.500Z,15.73
2019-05-19T11:50:41.697Z,15.87
2019-05-19T11:53:20.331Z,16.37
2019-05-19T11:56:11.479Z,15.67
2019-05-19T11:58:53.626Z,15.00
2019-05-19T12:01:43.529Z,13.83
2019-05-19T12:04:33.398Z,16.53
2019-05-19T12:07:23.224Z,15.77
2019-05-19T12:10:13.168Z,15.63
2019-05-19T12:13:03.027Z,14.27
2019-05-19T12:15:52.871Z,13.67
2019-05-19T12:18:42.670Z,13.10
2019-05-19T12:21:32.660Z,13.13
2019-05-19T12:24:03.095Z,12.40
2019-05-19T12:26:52.953Z,13.20
2019-05-19T12:29:42.773Z,12.90
2019-05-19T12:32:32.640Z,12.77
2019-05-19T12:35:22.458Z,13.43
2019-05-19T12:38:12.309Z,12.07
2019-05-19T12:41:02.317Z,11.63
2019-05-19T12:43:52.151Z,11.33
2019-05-19T12:46:41.978Z,10.43
2019-05-19T12:49:31.857Z,11.60
2019-05-19T12:52:21.704Z,10.53
2019-05-19T12:55:11.644Z,9.77
2019-05-19T12:58:01.542Z,10.27
2019-05-19T13:00:51.448Z,9.97
2019-05-19T13:03:42.327Z,10.43
2019-05-19T13:06:32.249Z,11.83
2019-05-19T13:09:05.439Z,11.50
2019-05-19T13:11:55.319Z,12.50
2019-05-19T13:14:45.169Z,12.03
2019-05-19T13:17:34.977Z,12.90
2019-05-19T13:23:10.319Z,12.67
2019-05-19T13:25:40.750Z,12.50
2019-05-19T13:28:30.683Z,12.47
2019-05-19T13:31:20.618Z,12.80
2019-05-19T13:34:10.487Z,11.50
2019-05-19T13:37:00.301Z,11.70
2019-05-19T13:39:50.375Z,12.40
2019-05-19T13:42:40.199Z,12.80
2019-05-19T13:45:30.062Z,12.60
2019-05-19T13:48:19.913Z,12.33
2019-05-19T13:51:09.830Z,12.00
2019-05-19T13:53:59.724Z,11.30
2019-05-19T13:56:49.543Z,11.30
2019-05-19T13:59:39.409Z,11.47
2019-05-19T14:02:29.216Z,11.70
2019-05-19T14:05:19.067Z,11.97
2019-05-19T14:08:08.915Z,11.97
2019-05-19T14:10:58.730Z,10.53
2019-05-19T14:13:48.566Z,9.77
2019-05-19T14:16:38.387Z,9.70
2019-05-19T14:19:28.265Z,9.40
2019-05-19T14:22:18.123Z,7.87
2019-05-19T14:25:08.022Z,7.97
2019-05-19T14:27:57.867Z,8.17
2019-05-19T14:30:47.709Z,7.83
2019-05-19T14:33:37.533Z,7.60
2019-05-19T14:36:27.320Z,8.10
2019-05-19T14:39:17.183Z,6.80
2019-05-19T14:44:53.405Z,6.27
2019-05-19T14:47:43.216Z,7.00
2019-05-19T14:50:33.055Z,6.73
2019-05-19T14:53:23.002Z,8.00
2019-05-19T14:56:12.856Z,7.47
2019-05-19T14:59:02.771Z,7.00
2019-05-19T15:01:52.888Z,8.10
2019-05-19T15:04:23.373Z,8.07
2019-05-19T15:07:13.193Z,8.10
2019-05-19T15:10:02.998Z,8.70
2019-05-19T15:12:52.790Z,8.10
2019-05-19T15:15:23.295Z,8.10
2019-05-19T15:17:53.827Z,8.60
2019-05-19T15:20:24.371Z,9.60
2019-05-19T15:22:55.139Z,9.30
2019-05-19T15:25:25.725Z,9.90
2019-05-19T15:28:15.555Z,10.50
2019-05-19T15:31:05.516Z,9.80
2019-05-19T15:33:55.393Z,11.20
2019-05-19T15:36:25.831Z,10.70
2019-05-19T15:39:15.628Z,10.63
2019-05-19T15:42:05.434Z,9.33
2019-05-19T15:44:35.864Z,10.13
2019-05-19T15:47:07.898Z,10.33
2019-05-19T15:49:57.864Z,10.50
2019-05-19T15:52:28.393Z,11.00
2019-05-19T15:55:18.246Z,10.70
2019-05-19T15:58:16.104Z,10.40
2019-05-19T16:00:50.867Z,8.87
2019-05-19T16:03:40.657Z,10.33
2019-05-19T16:06:30.475Z,8.70
2019-05-19T16:09:20.354Z,10.43
2019-05-19T16:12:10.380Z,10.63
2019-05-19T16:15:00.369Z,11.60
2019-05-19T16:17:50.192Z,11.20
2019-05-19T16:20:40.031Z,11.10
2019-05-19T16:23:29.928Z,12.10
2019-05-19T16:26:19.776Z,11.93
2019-05-19T16:29:09.626Z,12.20
2019-05-19T16:31:59.442Z,12.70
2019-05-19T16:34:29.909Z,12.57
2019-05-19T16:37:19.774Z,13.50
2019-05-19T16:43:14.078Z,13.47
2019-05-19T16:45:44.563Z,14.17
2019-05-19T16:48:34.401Z,14.70
2019-05-19T16:51:25.188Z,14.63
2019-05-19T16:57:14.658Z,15.80
2019-05-19T17:00:05.186Z,15.70
2019-05-19T17:02:55.084Z,15.30
2019-05-19T17:05:44.917Z,14.10
2019-05-19T17:08:34.793Z,15.73
2019-05-19T17:11:24.610Z,15.13
2019-05-19T17:14:14.446Z,15.47
2019-05-19T17:17:04.394Z,15.30
2019-05-19T17:19:54.264Z,14.87
2019-05-19T17:22:44.116Z,14.30
2019-05-19T17:25:34.021Z,14.37
2019-05-19T17:28:23.952Z,14.77
2019-05-19T17:31:13.767Z,14.27
2019-05-19T17:34:03.587Z,14.73
2019-05-19T17:36:59.455Z,14.47
2019-05-19T17:39:49.264Z,13.93
2019-05-19T17:42:39.118Z,13.50
2019-05-19T17:45:29.105Z,14.13
2019-05-19T17:48:09.545Z,14.40
2019-05-19T17:50:51.173Z,14.80
2019-05-19T17:53:41.002Z,14.10
2019-05-19T17:56:31.101Z,15.00
2019-05-19T17:59:21.166Z,14.83
2019-05-19T18:02:11.029Z,14.80
2019-05-19T18:05:04.383Z,15.10
2019-05-19T18:07:54.185Z,14.87
2019-05-19T18:10:44.070Z,15.13
2019-05-19T18:13:33.897Z,16.13
2019-05-19T18:16:23.839Z,15.60
2019-05-19T18:18:54.254Z,16.87
2019-05-19T18:21:25.225Z,17.60
2019-05-19T18:24:15.268Z,15.87
2019-05-19T18:26:45.854Z,16.17
2019-05-19T18:29:35.664Z,16.10
2019-05-19T18:38:09.327Z,16.63
2019-05-19T18:40:59.186Z,18.63
2019-05-19T18:43:49.034Z,18.23
2019-05-19T18:46:38.894Z,18.53
2019-05-19T18:49:28.759Z,18.97
2019-05-19T18:51:59.247Z,18.47
2019-05-19T18:54:50.518Z,19.27
2019-05-19T18:57:28.490Z,17.80
2019-05-19T19:03:25.336Z,18.90
2019-05-19T19:06:15.220Z,19.70
2019-05-19T19:09:06.201Z,21.80
2019-05-19T19:11:55.981Z,22.30
2019-05-19T19:14:45.936Z,20.80
2019-05-19T19:17:35.704Z,21.03
2019-05-19T19:20:06.322Z,19.70
2019-05-19T19:22:56.109Z,21.30
2019-05-19T19:25:32.399Z,20.77
2019-05-19T19:28:22.612Z,21.83
2019-05-19T19:31:12.472Z,21.10
2019-05-19T19:34:02.378Z,20.00
2019-05-19T19:36:52.188Z,22.67
2019-05-19T19:39:42.003Z,20.83
2019-05-19T19:42:31.894Z,24.57
2019-05-19T19:45:21.826Z,22.67
2019-05-19T19:47:54.205Z,23.70
2019-05-19T19:50:44.053Z,23.43
2019-05-19T19:53:33.842Z,24.97
2019-05-19T19:56:23.686Z,24.90
2019-05-19T19:59:15.826Z,25.20
2019-05-19T20:02:05.648Z,24.57
2019-05-19T20:04:55.478Z,25.40
2019-05-19T20:07:25.906Z,25.60
2019-05-19T20:10:15.768Z,25.03
2019-05-19T20:13:06.623Z,27.30
2019-05-19T20:15:56.480Z,26.80
2019-05-19T20:18:46.303Z,27.30
2019-05-19T20:21:36.154Z,28.90
2019-05-19T20:24:06.551Z,27.57
2019-05-19T20:26:56.419Z,27.80
2019-05-19T20:32:35.673Z,28.75
2019-05-19T20:38:27.343Z,29.57
2019-05-19T20:41:17.500Z,27.60
2019-05-19T20:44:07.351Z,29.93
2019-05-19T20:46:57.224Z,28.27
2019-05-19T20:49:47.060Z,26.90
2019-05-19T20:52:36.920Z,25.33
2019-05-19T20:55:26.803Z,25.20
2019-05-19T20:58:16.613Z,20.60
2019-05-19T21:01:06.486Z,21.00
2019-05-19T21:03:56.296Z,16.90
2019-05-19T21:06:46.134Z,15.50
2019-05-19T21:09:16.561Z,14.50
2019-05-19T21:12:06.478Z,13.77
2019-05-19T21:14:56.393Z,12.67
2019-05-19T21:17:27.048Z,12.90
2019-05-19T21:20:16.945Z,11.57
2019-05-19T21:23:06.913Z,10.37
2019-05-19T21:25:56.754Z,9.93
2019-05-19T21:28:46.553Z,11.30
2019-05-19T21:31:36.325Z,11.33
2019-05-19T21:34:06.744Z,13.10
2019-05-19T21:36:56.545Z,13.60
2019-05-19T21:39:46.353Z,15.57
2019-05-19T21:42:36.205Z,14.17
2019-05-19T21:48:09.083Z,16.03
2019-05-19T21:50:58.969Z,17.40
2019-05-19T21:53:48.764Z,15.30
2019-05-19T21:56:41.083Z,14.23
2019-05-19T21:59:31.000Z,16.00
2019-05-19T22:02:21.180Z,15.67
2019-05-19T22:05:11.001Z,17.17
2019-05-19T22:11:26.513Z,17.03
2019-05-19T22:14:16.355Z,17.13
2019-05-19T22:17:06.170Z,19.20
2019-05-19T22:19:56.017Z,21.47
2019-05-19T22:22:45.918Z,22.67
2019-05-19T22:25:35.869Z,23.13
2019-05-19T22:28:06.409Z,22.53
2019-05-19T22:30:56.239Z,23.80
2019-05-19T22:33:46.052Z,26.00
2019-05-19T22:36:35.854Z,26.03
2019-05-19T22:39:08.158Z,28.33
2019-05-19T22:41:57.953Z,28.60
2019-05-19T22:47:50.787Z,28.20
2019-05-19T22:50:21.503Z,28.03
2019-05-19T22:53:11.324Z,28.43
2019-05-19T22:56:01.141Z,27.93
2019-05-19T22:58:50.979Z,27.37
2019-05-19T23:01:21.542Z,28.50
2019-05-19T23:04:11.488Z,26.50
2019-05-19T23:07:01.294Z,27.13
2019-05-19T23:09:51.143Z,28.70
2019-05-19T23:12:40.955Z,26.83
2019-05-19T23:15:30.776Z,27.77
2019-05-19T23:18:20.609Z,27.00
2019-05-19T23:21:10.462Z,25.50
2019-05-19T23:24:00.263Z,25.20
2019-05-19T23:26:50.082Z,23.83
2019-05-19T23:29:39.890Z,21.77
2019-05-19T23:32:29.778Z,21.03
2019-05-19T23:35:01.810Z,21.70
2019-05-19T23:37:51.650Z,22.20
2019-05-19T23:40:41.422Z,21.10
2019-05-19T23:43:31.260Z,20.20
2019-05-19T23:46:21.043Z,20.30
2019-05-19T23:49:10.882Z,20.67
2019-05-19T23:52:00.724Z,18.07
2019-05-19T23:57:53.626Z,16.37
